sensor_id;sensor_type;location;lat;lon;timestamp;P1;durP1;ratioP1;P2;durP2;ratioP2
10166;SDS011;62970;53.130;8.244;2023-03-18T05:51:37;5.27;;;4.47;;
10166;SDS011;62970;53.130;8.244;2023-03-18T05:54:06;7.07;;;4.90;;
10166;SDS011;62970;53.130;8.244;2023-03-18T05:56:36;6.40;;;5.30;;
10166;SDS011;62970;53.130;8.244;2023-03-18T05:59:07;7.73;;;5.43;;
10166;SDS011;62970;53.130;8.244;2023-03-18T06:01:37;7.57;;;5.73;;
10166;SDS011;62970;53.130;8.244;2023-03-18T06:04:09;7.60;;;5.87;;
10166;SDS011;62970;53.130;8.244;2023-03-18T06:06:39;7.83;;;5.83;;
10166;SDS011;62970;53.130;8.244;2023-03-18T06:09:09;9.73;;;5.83;;
10166;SDS011;62970;53.130;8.244;2023-03-18T06:11:40;7.53;;;5.70;;
10166;SDS011;62970;53.130;8.244;2023-03-18T06:14:10;6.97;;;5.77;;
10166;SDS011;62970;53.130;8.244;2023-03-18T06:16:40;6.13;;;5.53;;
10166;SDS011;62970;53.130;8.244;2023-03-18T06:19:13;6.90;;;5.33;;
10166;SDS011;62970;53.130;8.244;2023-03-18T06:21:43;8.20;;;5.87;;
10166;SDS011;62970;53.130;8.244;2023-03-18T06:24:12;8.57;;;5.50;;
10166;SDS011;62970;53.130;8.244;2023-03-18T06:26:42;5.97;;;5.37;;
10166;SDS011;62970;53.130;8.244;2023-03-18T06:29:11;6.83;;;5.87;;
10166;SDS011;62970;53.130;8.244;2023-03-18T06:31:42;7.13;;;5.50;;
10166;SDS011;62970;53.130;8.244;2023-03-18T06:34:16;9.80;;;5.87;;
10166;SDS011;62970;53.130;8.244;2023-03-18T06:36:46;6.33;;;5.73;;
10166;SDS011;62970;53.130;8.244;2023-03-18T06:39:16;9.60;;;6.47;;
10166;SDS011;62970;53.130;8.244;2023-03-18T06:41:45;6.10;;;5.50;;
10166;SDS011;62970;53.130;8.244;2023-03-18T06:44:16;6.90;;;5.67;;
10166;SDS011;62970;53.130;8.244;2023-03-18T06:46:45;6.80;;;5.90;;
10166;SDS011;62970;53.130;8.244;2023-03-18T06:49:17;7.47;;;6.03;;
10166;SDS011;62970;53.130;8.244;2023-03-18T06:51:48;7.80;;;6.10;;
10166;SDS011;62970;53.130;8.244;2023-03-18T06:54:18;7.03;;;6.33;;
10166;SDS011;62970;53.130;8.244;2023-03-18T06:56:48;10.97;;;7.70;;
10166;SDS011;62970;53.130;8.244;2023-03-18T06:59:17;7.77;;;6.50;;
10166;SDS011;62970;53.130;8.244;2023-03-18T07:01:48;9.43;;;6.40;;
10166;SDS011;62970;53.130;8.244;2023-03-18T07:04:20;7.17;;;6.23;;
10166;SDS011;62970;53.130;8.244;2023-03-18T07:06:50;8.47;;;6.00;;
10166;SDS011;62970;53.130;8.244;2023-03-18T07:09:22;7.53;;;6.53;;
10166;SDS011;62970;53.130;8.244;2023-03-18T07:11:51;7.87;;;6.63;;
10166;SDS011;62970;53.130;8.244;2023-03-18T07:14:21;8.23;;;6.33;;
10166;SDS011;62970;53.130;8.244;2023-03-18T07:16:50;8.67;;;6.67;;
10166;SDS011;62970;53.130;8.244;2023-03-18T07:19:22;9.97;;;7.00;;
10166;SDS011;62970;53.130;8.244;2023-03-18T07:21:54;7.70;;;6.33;;
10166;SDS011;62970;53.130;8.244;2023-03-18T07:24:24;6.83;;;6.13;;
10166;SDS011;62970;53.130;8.244;2023-03-18T07:26:54;7.10;;;6.40;;
10166;SDS011;62970;53.130;8.244;2023-03-18T07:29:25;9.10;;;7.07;;
10166;SDS011;62970;53.130;8.244;2023-03-18T07:31:54;7.60;;;6.80;;
10166;SDS011;62970;53.130;8.244;2023-03-18T07:34:26;8.37;;;6.57;;
10166;SDS011;62970;53.130;8.244;2023-03-18T07:36:55;8.17;;;6.90;;
10166;SDS011;62970;53.130;8.244;2023-03-18T07:39:25;7.20;;;6.50;;
10166;SDS011;62970;53.130;8.244;2023-03-18T07:41:54;7.77;;;6.97;;
10166;SDS011;62970;53.130;8.244;2023-03-18T07:44:23;8.73;;;6.90;;
10166;SDS011;62970;53.130;8.244;2023-03-18T07:46:53;7.10;;;6.37;;
10166;SDS011;62970;53.130;8.244;2023-03-18T07:49:22;8.07;;;6.73;;
10166;SDS011;62970;53.130;8.244;2023-03-18T07:51:54;9.77;;;6.50;;
10166;SDS011;62970;53.130;8.244;2023-03-18T07:54:23;8.03;;;7.00;;
10166;SDS011;62970;53.130;8.244;2023-03-18T07:56:53;7.73;;;6.70;;
10166;SDS011;62970;53.130;8.244;2023-03-18T07:59:22;7.73;;;6.93;;
10166;SDS011;62970;53.130;8.244;2023-03-18T08:01:52;7.60;;;6.83;;
10166;SDS011;62970;53.130;8.244;2023-03-18T08:04:21;7.67;;;6.87;;
10166;SDS011;62970;53.130;8.244;2023-03-18T08:06:53;7.67;;;6.87;;
10166;SDS011;62970;53.130;8.244;2023-03-18T08:09:22;7.90;;;7.10;;
10166;SDS011;62970;53.130;8.244;2023-03-18T08:11:52;8.00;;;7.20;;
10166;SDS011;62970;53.130;8.244;2023-03-18T08:14:22;7.97;;;7.17;;
10166;SDS011;62970;53.130;8.244;2023-03-18T08:16:51;8.40;;;7.53;;
10166;SDS011;62970;53.130;8.244;2023-03-18T08:19:21;9.67;;;7.13;;
10166;SDS011;62970;53.130;8.244;2023-03-18T08:21:53;8.13;;;7.33;;
10166;SDS011;62970;53.130;8.244;2023-03-18T08:24:23;8.97;;;6.87;;
10166;SDS011;62970;53.130;8.244;2023-03-18T08:26:52;10.20;;;7.23;;
10166;SDS011;62970;53.130;8.244;2023-03-18T08:29:22;8.00;;;7.20;;
10166;SDS011;62970;53.130;8.244;2023-03-18T08:31:52;10.00;;;7.27;;
10166;SDS011;62970;53.130;8.244;2023-03-18T08:34:21;7.67;;;6.80;;
10166;SDS011;62970;53.130;8.244;2023-03-18T08:36:50;8.87;;;7.37;;
10166;SDS011;62970;53.130;8.244;2023-03-18T08:39:24;8.43;;;7.23;;
10166;SDS011;62970;53.130;8.244;2023-03-18T08:41:53;10.03;;;6.93;;
10166;SDS011;62970;53.130;8.244;2023-03-18T08:44:23;8.40;;;7.60;;
10166;SDS011;62970;53.130;8.244;2023-03-18T08:46:55;8.83;;;7.10;;
10166;SDS011;62970;53.130;8.244;2023-03-18T08:49:25;9.57;;;8.00;;
10166;SDS011;62970;53.130;8.244;2023-03-18T08:51:57;8.47;;;7.67;;
10166;SDS011;62970;53.130;8.244;2023-03-18T08:54:27;12.33;;;8.43;;
10166;SDS011;62970;53.130;8.244;2023-03-18T08:56:56;11.30;;;9.33;;
10166;SDS011;62970;53.130;8.244;2023-03-18T08:59:26;14.00;;;9.67;;
10166;SDS011;62970;53.130;8.244;2023-03-18T09:01:56;10.57;;;9.33;;
10166;SDS011;62970;53.130;8.244;2023-03-18T09:04:25;10.37;;;9.33;;
10166;SDS011;62970;53.130;8.244;2023-03-18T09:06:57;10.87;;;9.73;;
10166;SDS011;62970;53.130;8.244;2023-03-18T09:09:27;9.83;;;8.83;;
10166;SDS011;62970;53.130;8.244;2023-03-18T09:11:57;11.07;;;9.87;;
10166;SDS011;62970;53.130;8.244;2023-03-18T09:14:28;11.30;;;9.90;;
10166;SDS011;62970;53.130;8.244;2023-03-18T09:16:58;11.33;;;10.10;;
10166;SDS011;62970;53.130;8.244;2023-03-18T09:19:28;12.73;;;10.40;;
10166;SDS011;62970;53.130;8.244;2023-03-18T09:22:01;11.73;;;10.53;;
10166;SDS011;62970;53.130;8.244;2023-03-18T09:24:30;11.33;;;10.17;;
10166;SDS011;62970;53.130;8.244;2023-03-18T09:27:00;11.27;;;10.17;;
10166;SDS011;62970;53.130;8.244;2023-03-18T09:29:29;12.17;;;10.97;;
10166;SDS011;62970;53.130;8.244;2023-03-18T09:31:58;12.30;;;10.13;;
10166;SDS011;62970;53.130;8.244;2023-03-18T09:34:28;12.17;;;10.07;;
10166;SDS011;62970;53.130;8.244;2023-03-18T09:36:57;12.30;;;10.93;;
10166;SDS011;62970;53.130;8.244;2023-03-18T09:39:29;11.07;;;9.97;;
10166;SDS011;62970;53.130;8.244;2023-03-18T09:42:02;13.10;;;10.63;;
10166;SDS011;62970;53.130;8.244;2023-03-18T09:44:51;10.83;;;9.73;;
10166;SDS011;62970;53.130;8.244;2023-03-18T09:47:30;11.63;;;10.50;;
10166;SDS011;62970;53.130;8.244;2023-03-18T09:50:35;12.20;;;10.17;;
10166;SDS011;62970;53.130;8.244;2023-03-18T09:53:18;11.07;;;9.97;;
10166;SDS011;62970;53.130;8.244;2023-03-18T09:55:52;11.77;;;10.63;;
10166;SDS011;62970;53.130;8.244;2023-03-18T09:58:26;12.07;;;10.60;;
10166;SDS011;62970;53.130;8.244;2023-03-18T10:01:02;11.83;;;10.63;;
10166;SDS011;62970;53.130;8.244;2023-03-18T10:03:34;11.50;;;10.37;;
10166;SDS011;62970;53.130;8.244;2023-03-18T10:06:11;11.83;;;10.47;;
10166;SDS011;62970;53.130;8.244;2023-03-18T10:08:48;12.00;;;10.70;;
10166;SDS011;62970;53.130;8.244;2023-03-18T10:11:27;11.90;;;10.43;;
10166;SDS011;62970;53.130;8.244;2023-03-18T10:14:07;11.90;;;10.10;;
10166;SDS011;62970;53.130;8.244;2023-03-18T10:16:56;12.87;;;10.60;;
10166;SDS011;62970;53.130;8.244;2023-03-18T10:19:36;13.70;;;10.40;;
10166;SDS011;62970;53.130;8.244;2023-03-18T10:22:14;12.20;;;10.97;;
10166;SDS011;62970;53.130;8.244;2023-03-18T10:25:18;10.83;;;9.57;;
10166;SDS011;62970;53.130;8.244;2023-03-18T10:27:56;12.43;;;10.77;;
10166;SDS011;62970;53.130;8.244;2023-03-18T10:30:48;12.17;;;10.87;;
10166;SDS011;62970;53.130;8.244;2023-03-18T10:33:31;12.53;;;11.07;;
10166;SDS011;62970;53.130;8.244;2023-03-18T10:36:11;12.67;;;11.07;;
10166;SDS011;62970;53.130;8.244;2023-03-18T10:38:47;13.97;;;11.60;;
10166;SDS011;62970;53.130;8.244;2023-03-18T10:41:22;12.47;;;11.23;;
10166;SDS011;62970;53.130;8.244;2023-03-18T10:43:56;13.30;;;12.00;;
10166;SDS011;62970;53.130;8.244;2023-03-18T10:46:29;13.43;;;11.23;;
10166;SDS011;62970;53.130;8.244;2023-03-18T10:49:00;13.70;;;12.30;;
10166;SDS011;62970;53.130;8.244;2023-03-18T10:51:40;13.20;;;11.83;;
10166;SDS011;62970;53.130;8.244;2023-03-18T10:54:18;14.60;;;12.60;;
10166;SDS011;62970;53.130;8.244;2023-03-18T10:56:58;12.37;;;11.17;;
10166;SDS011;62970;53.130;8.244;2023-03-18T10:59:29;13.80;;;12.23;;
10166;SDS011;62970;53.130;8.244;2023-03-18T11:02:01;13.70;;;12.27;;
10166;SDS011;62970;53.130;8.244;2023-03-18T11:04:43;14.63;;;12.03;;
10166;SDS011;62970;53.130;8.244;2023-03-18T11:07:18;14.63;;;12.53;;
10166;SDS011;62970;53.130;8.244;2023-03-18T11:09:51;14.50;;;11.83;;
10166;SDS011;62970;53.130;8.244;2023-03-18T11:12:25;14.97;;;12.47;;
10166;SDS011;62970;53.130;8.244;2023-03-18T11:14:56;14.10;;;11.73;;
10166;SDS011;62970;53.130;8.244;2023-03-18T11:17:26;14.50;;;12.40;;
10166;SDS011;62970;53.130;8.244;2023-03-18T11:20:00;14.90;;;13.30;;
10166;SDS011;62970;53.130;8.244;2023-03-18T11:22:36;16.00;;;12.77;;
10166;SDS011;62970;53.130;8.244;2023-03-18T11:25:12;14.07;;;12.30;;
10166;SDS011;62970;53.130;8.244;2023-03-18T11:27:47;13.43;;;12.13;;
10166;SDS011;62970;53.130;8.244;2023-03-18T11:30:19;14.03;;;12.50;;
10166;SDS011;62970;53.130;8.244;2023-03-18T11:32:51;14.00;;;12.60;;
10166;SDS011;62970;53.130;8.244;2023-03-18T11:35:23;14.20;;;12.70;;
10166;SDS011;62970;53.130;8.244;2023-03-18T11:38:01;13.63;;;12.13;;
10166;SDS011;62970;53.130;8.244;2023-03-18T11:40:31;12.90;;;11.60;;
10166;SDS011;62970;53.130;8.244;2023-03-18T11:43:10;12.40;;;11.07;;
10166;SDS011;62970;53.130;8.244;2023-03-18T11:45:47;12.07;;;10.73;;
10166;SDS011;62970;53.130;8.244;2023-03-18T11:48:27;11.67;;;10.47;;
10166;SDS011;62970;53.130;8.244;2023-03-18T11:51:16;11.67;;;10.53;;
10166;SDS011;62970;53.130;8.244;2023-03-18T11:54:13;11.40;;;9.60;;
10166;SDS011;62970;53.130;8.244;2023-03-18T11:57:14;10.47;;;8.93;;
10166;SDS011;62970;53.130;8.244;2023-03-18T11:59:55;11.50;;;9.90;;
10166;SDS011;62970;53.130;8.244;2023-03-18T12:02:39;10.67;;;9.57;;
10166;SDS011;62970;53.130;8.244;2023-03-18T12:05:38;9.50;;;8.47;;
10166;SDS011;62970;53.130;8.244;2023-03-18T12:08:33;8.80;;;7.90;;
10166;SDS011;62970;53.130;8.244;2023-03-18T12:11:16;9.57;;;7.53;;
10166;SDS011;62970;53.130;8.244;2023-03-18T12:13:55;8.30;;;7.50;;
10166;SDS011;62970;53.130;8.244;2023-03-18T12:16:44;8.03;;;7.23;;
10166;SDS011;62970;53.130;8.244;2023-03-18T12:19:37;7.67;;;6.97;;
10166;SDS011;62970;53.130;8.244;2023-03-18T12:22:38;6.87;;;6.00;;
10166;SDS011;62970;53.130;8.244;2023-03-18T12:25:45;7.40;;;6.30;;
10166;SDS011;62970;53.130;8.244;2023-03-18T12:28:34;7.47;;;6.07;;
10166;SDS011;62970;53.130;8.244;2023-03-18T12:31:20;6.50;;;5.90;;
10166;SDS011;62970;53.130;8.244;2023-03-18T12:37:07;7.10;;;6.40;;
10166;SDS011;62970;53.130;8.244;2023-03-18T12:42:52;7.63;;;6.27;;
10166;SDS011;62970;53.130;8.244;2023-03-18T12:45:46;7.03;;;6.27;;
10166;SDS011;62970;53.130;8.244;2023-03-18T12:48:21;7.70;;;6.40;;
10166;SDS011;62970;53.130;8.244;2023-03-18T12:51:00;7.07;;;6.47;;
10166;SDS011;62970;53.130;8.244;2023-03-18T12:53:39;7.50;;;6.43;;
10166;SDS011;62970;53.130;8.244;2023-03-18T12:56:15;8.40;;;6.00;;
10166;SDS011;62970;53.130;8.244;2023-03-18T12:58:49;8.30;;;6.30;;
10166;SDS011;62970;53.130;8.244;2023-03-18T13:01:22;7.33;;;6.43;;
10166;SDS011;62970;53.130;8.244;2023-03-18T13:04:01;7.13;;;6.50;;
10166;SDS011;62970;53.130;8.244;2023-03-18T13:06:37;7.60;;;6.70;;
10166;SDS011;62970;53.130;8.244;2023-03-18T13:09:15;6.50;;;5.67;;
10166;SDS011;62970;53.130;8.244;2023-03-18T13:11:59;6.90;;;6.30;;
10166;SDS011;62970;53.130;8.244;2023-03-18T13:14:45;7.27;;;6.43;;
10166;SDS011;62970;53.130;8.244;2023-03-18T13:17:28;6.83;;;6.07;;
10166;SDS011;62970;53.130;8.244;2023-03-18T13:20:02;7.53;;;5.67;;
10166;SDS011;62970;53.130;8.244;2023-03-18T13:26:12;5.70;;;5.20;;
10166;SDS011;62970;53.130;8.244;2023-03-18T13:28:54;4.90;;;4.50;;
10166;SDS011;62970;53.130;8.244;2023-03-18T13:31:39;5.80;;;5.10;;
10166;SDS011;62970;53.130;8.244;2023-03-18T13:34:27;4.70;;;4.23;;
10166;SDS011;62970;53.130;8.244;2023-03-18T13:37:42;4.13;;;3.73;;
10166;SDS011;62970;53.130;8.244;2023-03-18T13:40:52;5.17;;;4.10;;
10166;SDS011;62970;53.130;8.244;2023-03-18T13:43:48;3.67;;;3.37;;
10166;SDS011;62970;53.130;8.244;2023-03-18T13:46:19;3.50;;;3.20;;
10166;SDS011;62970;53.130;8.244;2023-03-18T13:48:53;4.67;;;3.37;;
10166;SDS011;62970;53.130;8.244;2023-03-18T13:51:46;4.47;;;3.43;;
10166;SDS011;62970;53.130;8.244;2023-03-18T13:54:19;3.83;;;3.43;;
10166;SDS011;62970;53.130;8.244;2023-03-18T13:56:50;4.90;;;3.20;;
10166;SDS011;62970;53.130;8.244;2023-03-18T14:02:28;2.90;;;2.60;;
